sensor_id;sensor_type;location;lat;lon;timestamp;P1;durP1;ratioP1;P2;durP2;ratioP2
10092;SDS011;5085;48.092;11.484;2022-12-07T00:01:22;9.88;;;4.55;;
10092;SDS011;5085;48.092;11.484;2022-12-07T00:03:53;7.72;;;4.25;;
10092;SDS011;5085;48.092;11.484;2022-12-07T00:06:22;8.73;;;4.30;;
10092;SDS011;5085;48.092;11.484;2022-12-07T00:08:49;7.68;;;4.15;;
10092;SDS011;5085;48.092;11.484;2022-12-07T00:11:19;11.20;;;4.78;;
10092;SDS011;5085;48.092;11.484;2022-12-07T00:13:47;8.23;;;4.22;;
10092;SDS011;5085;48.092;11.484;2022-12-07T00:16:18;8.55;;;4.50;;
10092;SDS011;5085;48.092;11.484;2022-12-07T00:18:46;10.32;;;5.07;;
10092;SDS011;5085;48.092;11.484;2022-12-07T00:21:13;9.13;;;4.40;;
10092;SDS011;5085;48.092;11.484;2022-12-07T00:23:46;9.10;;;4.55;;
10092;SDS011;5085;48.092;11.484;2022-12-07T00:26:14;9.80;;;4.75;;
10092;SDS011;5085;48.092;11.484;2022-12-07T00:28:46;9.63;;;4.72;;
10092;SDS011;5085;48.092;11.484;2022-12-07T00:31:13;11.65;;;4.22;;
10092;SDS011;5085;48.092;11.484;2022-12-07T00:33:40;9.52;;;3.95;;
10092;SDS011;5085;48.092;11.484;2022-12-07T00:36:07;7.85;;;4.28;;
10092;SDS011;5085;48.092;11.484;2022-12-07T00:38:35;7.75;;;4.25;;
10092;SDS011;5085;48.092;11.484;2022-12-07T00:41:03;8.27;;;4.32;;
10092;SDS011;5085;48.092;11.484;2022-12-07T00:43:35;8.23;;;3.85;;
10092;SDS011;5085;48.092;11.484;2022-12-07T00:46:01;8.93;;;3.97;;
10092;SDS011;5085;48.092;11.484;2022-12-07T00:48:27;7.22;;;3.67;;
10092;SDS011;5085;48.092;11.484;2022-12-07T00:50:53;9.68;;;4.80;;
10092;SDS011;5085;48.092;11.484;2022-12-07T00:53:19;6.40;;;3.47;;
10092;SDS011;5085;48.092;11.484;2022-12-07T00:55:45;10.05;;;4.57;;
10092;SDS011;5085;48.092;11.484;2022-12-07T00:58:12;9.13;;;4.15;;
10092;SDS011;5085;48.092;11.484;2022-12-07T01:00:38;6.35;;;3.75;;
10092;SDS011;5085;48.092;11.484;2022-12-07T01:03:06;9.82;;;4.43;;
10092;SDS011;5085;48.092;11.484;2022-12-07T01:05:34;8.77;;;4.43;;
10092;SDS011;5085;48.092;11.484;2022-12-07T01:08:01;10.27;;;3.47;;
10092;SDS011;5085;48.092;11.484;2022-12-07T01:10:27;8.10;;;3.40;;
10092;SDS011;5085;48.092;11.484;2022-12-07T01:12:56;8.20;;;4.03;;
10092;SDS011;5085;48.092;11.484;2022-12-07T01:15:22;7.28;;;3.47;;
10092;SDS011;5085;48.092;11.484;2022-12-07T01:17:48;9.50;;;4.25;;
10092;SDS011;5085;48.092;11.484;2022-12-07T01:20:14;9.07;;;4.10;;
10092;SDS011;5085;48.092;11.484;2022-12-07T01:22:42;7.78;;;4.20;;
10092;SDS011;5085;48.092;11.484;2022-12-07T01:25:09;6.80;;;3.25;;
10092;SDS011;5085;48.092;11.484;2022-12-07T01:27:36;6.57;;;3.55;;
10092;SDS011;5085;48.092;11.484;2022-12-07T01:30:03;8.15;;;4.15;;
10092;SDS011;5085;48.092;11.484;2022-12-07T01:32:31;9.00;;;3.88;;
10092;SDS011;5085;48.092;11.484;2022-12-07T01:34:58;7.88;;;4.00;;
10092;SDS011;5085;48.092;11.484;2022-12-07T01:37:24;6.93;;;3.75;;
10092;SDS011;5085;48.092;11.484;2022-12-07T01:39:50;6.20;;;3.58;;
10092;SDS011;5085;48.092;11.484;2022-12-07T01:42:17;7.80;;;3.65;;
10092;SDS011;5085;48.092;11.484;2022-12-07T01:47:51;7.40;;;3.42;;
10092;SDS011;5085;48.092;11.484;2022-12-07T01:50:19;7.28;;;3.72;;
10092;SDS011;5085;48.092;11.484;2022-12-07T01:52:50;7.45;;;3.13;;
10092;SDS011;5085;48.092;11.484;2022-12-07T01:55:18;8.93;;;3.90;;
10092;SDS011;5085;48.092;11.484;2022-12-07T01:57:47;6.43;;;3.80;;
10092;SDS011;5085;48.092;11.484;2022-12-07T02:00:16;6.55;;;3.58;;
10092;SDS011;5085;48.092;11.484;2022-12-07T02:05:11;10.27;;;4.07;;
10092;SDS011;5085;48.092;11.484;2022-12-07T02:07:39;8.30;;;3.75;;
10092;SDS011;5085;48.092;11.484;2022-12-07T02:10:12;8.75;;;4.32;;
10092;SDS011;5085;48.092;11.484;2022-12-07T02:12:47;8.40;;;3.95;;
10092;SDS011;5085;48.092;11.484;2022-12-07T02:15:21;6.68;;;3.42;;
10092;SDS011;5085;48.092;11.484;2022-12-07T02:45:11;7.72;;;3.50;;
10092;SDS011;5085;48.092;11.484;2022-12-07T02:48:17;7.55;;;3.88;;
10092;SDS011;5085;48.092;11.484;2022-12-07T02:51:29;6.20;;;3.75;;
10092;SDS011;5085;48.092;11.484;2022-12-07T02:54:23;9.45;;;3.80;;
10092;SDS011;5085;48.092;11.484;2022-12-07T03:11:56;8.88;;;4.32;;
10092;SDS011;5085;48.092;11.484;2022-12-07T03:19:01;7.63;;;3.25;;
10092;SDS011;5085;48.092;11.484;2022-12-07T03:22:32;7.05;;;3.75;;
10092;SDS011;5085;48.092;11.484;2022-12-07T03:25:34;7.80;;;3.67;;
10092;SDS011;5085;48.092;11.484;2022-12-07T03:28:50;6.65;;;3.72;;
10092;SDS011;5085;48.092;11.484;2022-12-07T03:32:08;6.22;;;3.13;;
10092;SDS011;5085;48.092;11.484;2022-12-07T03:38:53;8.68;;;3.22;;
10092;SDS011;5085;48.092;11.484;2022-12-07T03:42:01;7.82;;;3.60;;
10092;SDS011;5085;48.092;11.484;2022-12-07T03:44:44;10.93;;;4.10;;
10092;SDS011;5085;48.092;11.484;2022-12-07T03:50:59;8.23;;;3.47;;
10092;SDS011;5085;48.092;11.484;2022-12-07T03:54:09;6.80;;;3.53;;
10092;SDS011;5085;48.092;11.484;2022-12-07T03:56:56;9.00;;;4.20;;
10092;SDS011;5085;48.092;11.484;2022-12-07T04:00:03;7.25;;;3.58;;
10092;SDS011;5085;48.092;11.484;2022-12-07T04:03:22;6.93;;;3.40;;
10092;SDS011;5085;48.092;11.484;2022-12-07T04:09:17;6.63;;;3.05;;
10092;SDS011;5085;48.092;11.484;2022-12-07T04:11:43;9.32;;;4.88;;
10092;SDS011;5085;48.092;11.484;2022-12-07T04:14:09;7.90;;;4.00;;
10092;SDS011;5085;48.092;11.484;2022-12-07T04:16:44;7.10;;;3.95;;
10092;SDS011;5085;48.092;11.484;2022-12-07T04:19:11;10.23;;;4.10;;
10092;SDS011;5085;48.092;11.484;2022-12-07T04:21:38;8.27;;;4.50;;
10092;SDS011;5085;48.092;11.484;2022-12-07T04:24:04;8.52;;;4.45;;
10092;SDS011;5085;48.092;11.484;2022-12-07T04:26:30;9.30;;;5.03;;
10092;SDS011;5085;48.092;11.484;2022-12-07T04:28:56;7.15;;;4.28;;
10092;SDS011;5085;48.092;11.484;2022-12-07T04:31:22;9.50;;;4.38;;
10092;SDS011;5085;48.092;11.484;2022-12-07T04:33:48;9.80;;;4.70;;
10092;SDS011;5085;48.092;11.484;2022-12-07T04:36:14;7.43;;;4.38;;
10092;SDS011;5085;48.092;11.484;2022-12-07T04:38:40;10.63;;;4.65;;
10092;SDS011;5085;48.092;11.484;2022-12-07T04:41:07;8.68;;;4.28;;
10092;SDS011;5085;48.092;11.484;2022-12-07T04:43:34;8.75;;;4.72;;
10092;SDS011;5085;48.092;11.484;2022-12-07T04:46:01;8.23;;;4.38;;
10092;SDS011;5085;48.092;11.484;2022-12-07T04:48:27;12.18;;;4.63;;
10092;SDS011;5085;48.092;11.484;2022-12-07T04:50:53;7.75;;;4.03;;
10092;SDS011;5085;48.092;11.484;2022-12-07T04:53:20;8.30;;;4.30;;
10092;SDS011;5085;48.092;11.484;2022-12-07T04:55:46;9.32;;;4.60;;
10092;SDS011;5085;48.092;11.484;2022-12-07T04:58:12;8.30;;;4.20;;
10092;SDS011;5085;48.092;11.484;2022-12-07T05:00:39;9.20;;;5.22;;
10092;SDS011;5085;48.092;11.484;2022-12-07T05:03:05;8.60;;;4.28;;
10092;SDS011;5085;48.092;11.484;2022-12-07T05:05:31;9.05;;;4.38;;
10092;SDS011;5085;48.092;11.484;2022-12-07T05:07:57;8.57;;;4.70;;
10092;SDS011;5085;48.092;11.484;2022-12-07T05:10:23;8.95;;;4.03;;
10092;SDS011;5085;48.092;11.484;2022-12-07T05:12:49;9.52;;;4.53;;
10092;SDS011;5085;48.092;11.484;2022-12-07T05:15:16;7.00;;;3.63;;
10092;SDS011;5085;48.092;11.484;2022-12-07T05:17:42;10.00;;;4.95;;
10092;SDS011;5085;48.092;11.484;2022-12-07T05:20:08;14.30;;;5.32;;
10092;SDS011;5085;48.092;11.484;2022-12-07T05:22:34;9.40;;;4.32;;
10092;SDS011;5085;48.092;11.484;2022-12-07T05:25:01;11.40;;;4.53;;
10092;SDS011;5085;48.092;11.484;2022-12-07T05:27:27;7.90;;;4.38;;
10092;SDS011;5085;48.092;11.484;2022-12-07T05:29:53;12.07;;;5.00;;
10092;SDS011;5085;48.092;11.484;2022-12-07T05:32:19;7.88;;;4.50;;
10092;SDS011;5085;48.092;11.484;2022-12-07T05:34:45;9.20;;;4.43;;
10092;SDS011;5085;48.092;11.484;2022-12-07T05:37:11;9.38;;;3.83;;
10092;SDS011;5085;48.092;11.484;2022-12-07T05:39:37;9.23;;;4.93;;
10092;SDS011;5085;48.092;11.484;2022-12-07T05:42:06;8.55;;;4.43;;
10092;SDS011;5085;48.092;11.484;2022-12-07T05:44:40;15.35;;;4.80;;
10092;SDS011;5085;48.092;11.484;2022-12-07T05:47:07;8.05;;;4.07;;
10092;SDS011;5085;48.092;11.484;2022-12-07T05:49:33;9.27;;;4.82;;
10092;SDS011;5085;48.092;11.484;2022-12-07T05:51:59;9.40;;;4.30;;
10092;SDS011;5085;48.092;11.484;2022-12-07T05:54:25;7.63;;;4.80;;
10092;SDS011;5085;48.092;11.484;2022-12-07T05:56:51;10.88;;;4.30;;
10092;SDS011;5085;48.092;11.484;2022-12-07T05:59:17;7.93;;;3.80;;
10092;SDS011;5085;48.092;11.484;2022-12-07T06:04:16;8.73;;;4.38;;
10092;SDS011;5085;48.092;11.484;2022-12-07T06:06:43;10.55;;;5.13;;
10092;SDS011;5085;48.092;11.484;2022-12-07T06:09:09;9.48;;;4.55;;
10092;SDS011;5085;48.092;11.484;2022-12-07T06:11:35;10.52;;;4.18;;
10092;SDS011;5085;48.092;11.484;2022-12-07T06:14:20;9.70;;;4.82;;
10092;SDS011;5085;48.092;11.484;2022-12-07T06:16:46;8.40;;;4.40;;
10092;SDS011;5085;48.092;11.484;2022-12-07T06:19:12;10.57;;;4.90;;
10092;SDS011;5085;48.092;11.484;2022-12-07T06:21:38;8.85;;;4.50;;
10092;SDS011;5085;48.092;11.484;2022-12-07T06:24:04;8.90;;;4.68;;
10092;SDS011;5085;48.092;11.484;2022-12-07T06:26:30;9.90;;;4.88;;
10092;SDS011;5085;48.092;11.484;2022-12-07T06:28:56;9.68;;;4.72;;
10092;SDS011;5085;48.092;11.484;2022-12-07T06:31:23;7.68;;;4.38;;
10092;SDS011;5085;48.092;11.484;2022-12-07T06:33:49;9.38;;;4.63;;
10092;SDS011;5085;48.092;11.484;2022-12-07T06:36:15;9.82;;;4.43;;
10092;SDS011;5085;48.092;11.484;2022-12-07T06:38:41;9.85;;;4.88;;
10092;SDS011;5085;48.092;11.484;2022-12-07T06:41:07;9.63;;;4.32;;
10092;SDS011;5085;48.092;11.484;2022-12-07T06:43:33;7.45;;;4.13;;
10092;SDS011;5085;48.092;11.484;2022-12-07T06:45:59;9.23;;;4.60;;
10092;SDS011;5085;48.092;11.484;2022-12-07T06:48:25;9.63;;;5.00;;
10092;SDS011;5085;48.092;11.484;2022-12-07T06:50:51;10.30;;;4.18;;
10092;SDS011;5085;48.092;11.484;2022-12-07T06:53:17;11.48;;;4.78;;
10092;SDS011;5085;48.092;11.484;2022-12-07T06:55:43;11.63;;;5.22;;
10092;SDS011;5085;48.092;11.484;2022-12-07T06:58:09;9.73;;;4.70;;
10092;SDS011;5085;48.092;11.484;2022-12-07T07:00:35;7.93;;;4.50;;
10092;SDS011;5085;48.092;11.484;2022-12-07T07:03:01;7.50;;;3.85;;
10092;SDS011;5085;48.092;11.484;2022-12-07T07:05:27;9.35;;;4.82;;
10092;SDS011;5085;48.092;11.484;2022-12-07T07:07:53;10.70;;;4.93;;
10092;SDS011;5085;48.092;11.484;2022-12-07T07:10:19;9.68;;;5.10;;
10092;SDS011;5085;48.092;11.484;2022-12-07T07:12:45;9.75;;;4.95;;
10092;SDS011;5085;48.092;11.484;2022-12-07T07:15:11;8.57;;;5.20;;
10092;SDS011;5085;48.092;11.484;2022-12-07T07:17:37;9.68;;;4.40;;
10092;SDS011;5085;48.092;11.484;2022-12-07T07:20:04;10.90;;;4.82;;
10092;SDS011;5085;48.092;11.484;2022-12-07T07:22:30;9.70;;;4.55;;
10092;SDS011;5085;48.092;11.484;2022-12-07T07:24:56;7.53;;;3.88;;
10092;SDS011;5085;48.092;11.484;2022-12-07T07:27:22;10.70;;;4.78;;
10092;SDS011;5085;48.092;11.484;2022-12-07T07:29:48;11.00;;;4.88;;
10092;SDS011;5085;48.092;11.484;2022-12-07T07:32:14;9.75;;;5.10;;
10092;SDS011;5085;48.092;11.484;2022-12-07T07:34:40;9.88;;;4.72;;
10092;SDS011;5085;48.092;11.484;2022-12-07T07:37:06;14.75;;;6.07;;
10092;SDS011;5085;48.092;11.484;2022-12-07T07:39:32;12.10;;;5.18;;
10092;SDS011;5085;48.092;11.484;2022-12-07T07:41:58;10.90;;;4.65;;
10092;SDS011;5085;48.092;11.484;2022-12-07T07:44:26;7.93;;;4.15;;
10092;SDS011;5085;48.092;11.484;2022-12-07T07:46:52;9.52;;;4.53;;
10092;SDS011;5085;48.092;11.484;2022-12-07T07:49:18;8.73;;;4.18;;
10092;SDS011;5085;48.092;11.484;2022-12-07T07:51:44;8.23;;;4.47;;
10092;SDS011;5085;48.092;11.484;2022-12-07T07:54:10;10.07;;;4.93;;
10092;SDS011;5085;48.092;11.484;2022-12-07T07:56:36;9.55;;;4.68;;
10092;SDS011;5085;48.092;11.484;2022-12-07T07:59:02;10.95;;;4.32;;
10092;SDS011;5085;48.092;11.484;2022-12-07T08:01:28;9.80;;;4.60;;
10092;SDS011;5085;48.092;11.484;2022-12-07T08:03:54;10.23;;;4.85;;
10092;SDS011;5085;48.092;11.484;2022-12-07T08:06:20;8.75;;;4.25;;
10092;SDS011;5085;48.092;11.484;2022-12-07T08:08:46;9.00;;;5.03;;
10092;SDS011;5085;48.092;11.484;2022-12-07T08:11:12;12.82;;;4.90;;
10092;SDS011;5085;48.092;11.484;2022-12-07T08:13:38;9.07;;;4.75;;
10092;SDS011;5085;48.092;11.484;2022-12-07T08:16:05;9.82;;;4.53;;
10092;SDS011;5085;48.092;11.484;2022-12-07T08:18:36;10.88;;;5.45;;
10092;SDS011;5085;48.092;11.484;2022-12-07T08:21:03;8.32;;;4.30;;
10092;SDS011;5085;48.092;11.484;2022-12-07T08:23:30;9.52;;;4.70;;
10092;SDS011;5085;48.092;11.484;2022-12-07T08:26:07;10.18;;;5.22;;
10092;SDS011;5085;48.092;11.484;2022-12-07T08:28:34;9.45;;;5.40;;
10092;SDS011;5085;48.092;11.484;2022-12-07T08:31:01;9.15;;;5.03;;
10092;SDS011;5085;48.092;11.484;2022-12-07T08:33:28;10.48;;;4.70;;
10092;SDS011;5085;48.092;11.484;2022-12-07T08:36:00;11.23;;;5.60;;
10092;SDS011;5085;48.092;11.484;2022-12-07T08:38:30;8.75;;;4.40;;
10092;SDS011;5085;48.092;11.484;2022-12-07T08:40:56;9.57;;;5.00;;
10092;SDS011;5085;48.092;11.484;2022-12-07T08:43:23;6.60;;;4.05;;
10092;SDS011;5085;48.092;11.484;2022-12-07T08:45:52;8.65;;;4.22;;
10092;SDS011;5085;48.092;11.484;2022-12-07T08:48:26;9.10;;;4.70;;
10092;SDS011;5085;48.092;11.484;2022-12-07T08:50:52;8.57;;;4.20;;
10092;SDS011;5085;48.092;11.484;2022-12-07T08:53:18;11.48;;;5.70;;
10092;SDS011;5085;48.092;11.484;2022-12-07T08:55:45;10.82;;;4.80;;
10092;SDS011;5085;48.092;11.484;2022-12-07T08:58:12;9.18;;;4.82;;
10092;SDS011;5085;48.092;11.484;2022-12-07T09:00:38;12.65;;;5.57;;
10092;SDS011;5085;48.092;11.484;2022-12-07T09:03:04;11.93;;;4.60;;
10092;SDS011;5085;48.092;11.484;2022-12-07T09:05:30;11.30;;;5.55;;
10092;SDS011;5085;48.092;11.484;2022-12-07T09:07:59;11.93;;;5.75;;
10092;SDS011;5085;48.092;11.484;2022-12-07T09:10:27;12.18;;;6.20;;
10092;SDS011;5085;48.092;11.484;2022-12-07T09:12:54;8.77;;;4.90;;
10092;SDS011;5085;48.092;11.484;2022-12-07T09:15:20;12.32;;;4.93;;
10092;SDS011;5085;48.092;11.484;2022-12-07T09:17:46;11.30;;;5.05;;
10092;SDS011;5085;48.092;11.484;2022-12-07T09:20:12;8.35;;;4.43;;
10092;SDS011;5085;48.092;11.484;2022-12-07T09:22:38;9.40;;;4.50;;
10092;SDS011;5085;48.092;11.484;2022-12-07T09:25:04;9.52;;;4.55;;
10092;SDS011;5085;48.092;11.484;2022-12-07T09:27:30;12.35;;;6.15;;
10092;SDS011;5085;48.092;11.484;2022-12-07T09:29:56;9.60;;;5.03;;
10092;SDS011;5085;48.092;11.484;2022-12-07T09:32:22;10.88;;;4.60;;
10092;SDS011;5085;48.092;11.484;2022-12-07T09:34:48;8.35;;;4.75;;
10092;SDS011;5085;48.092;11.484;2022-12-07T09:37:14;9.13;;;5.00;;
10092;SDS011;5085;48.092;11.484;2022-12-07T09:39:40;10.10;;;4.80;;
10092;SDS011;5085;48.092;11.484;2022-12-07T09:42:07;10.57;;;5.10;;
10092;SDS011;5085;48.092;11.484;2022-12-07T09:44:34;10.45;;;4.20;;
10092;SDS011;5085;48.092;11.484;2022-12-07T09:47:01;8.65;;;4.95;;
10092;SDS011;5085;48.092;11.484;2022-12-07T09:49:28;7.85;;;4.22;;
10092;SDS011;5085;48.092;11.484;2022-12-07T09:52:17;9.43;;;4.75;;
10092;SDS011;5085;48.092;11.484;2022-12-07T09:54:50;9.02;;;4.07;;
10092;SDS011;5085;48.092;11.484;2022-12-07T09:57:17;9.18;;;4.63;;
10092;SDS011;5085;48.092;11.484;2022-12-07T09:59:54;8.38;;;4.20;;
10092;SDS011;5085;48.092;11.484;2022-12-07T10:02:23;10.77;;;4.68;;
10092;SDS011;5085;48.092;11.484;2022-12-07T10:04:54;7.63;;;4.25;;
10092;SDS011;5085;48.092;11.484;2022-12-07T10:07:23;8.50;;;4.43;;
10092;SDS011;5085;48.092;11.484;2022-12-07T10:09:49;7.97;;;4.55;;
10092;SDS011;5085;48.092;11.484;2022-12-07T10:12:15;10.25;;;5.05;;
10092;SDS011;5085;48.092;11.484;2022-12-07T10:15:03;7.72;;;4.57;;
10092;SDS011;5085;48.092;11.484;2022-12-07T10:22:57;7.55;;;4.07;;
10092;SDS011;5085;48.092;11.484;2022-12-07T10:25:30;7.75;;;4.07;;
10092;SDS011;5085;48.092;11.484;2022-12-07T10:27:59;6.53;;;4.20;;
10092;SDS011;5085;48.092;11.484;2022-12-07T10:33:29;7.70;;;4.15;;
10092;SDS011;5085;48.092;11.484;2022-12-07T10:35:58;7.63;;;3.97;;
10092;SDS011;5085;48.092;11.484;2022-12-07T10:38:25;7.88;;;3.85;;
10092;SDS011;5085;48.092;11.484;2022-12-07T10:41:03;8.55;;;4.32;;
10092;SDS011;5085;48.092;11.484;2022-12-07T10:43:32;7.00;;;3.88;;
10092;SDS011;5085;48.092;11.484;2022-12-07T10:46:07;5.57;;;3.03;;
10092;SDS011;5085;48.092;11.484;2022-12-07T10:57:20;7.75;;;3.70;;
10092;SDS011;5085;48.092;11.484;2022-12-07T11:02:36;6.15;;;3.20;;
10092;SDS011;5085;48.092;11.484;2022-12-07T11:11:14;6.78;;;3.42;;
10092;SDS011;5085;48.092;11.484;2022-12-07T11:21:56;6.00;;;2.58;;
10092;SDS011;5085;48.092;11.484;2022-12-07T11:27:02;5.55;;;3.05;;
10092;SDS011;5085;48.092;11.484;2022-12-07T11:35:08;5.30;;;2.75;;
10092;SDS011;5085;48.092;11.484;2022-12-07T11:37:44;4.97;;;3.03;;
10092;SDS011;5085;48.092;11.484;2022-12-07T11:40:20;5.35;;;3.17;;
10092;SDS011;5085;48.092;11.484;2022-12-07T11:45:41;7.60;;;3.33;;
10092;SDS011;5085;48.092;11.484;2022-12-07T11:50:41;5.53;;;3.05;;
10092;SDS011;5085;48.092;11.484;2022-12-07T11:53:25;6.65;;;3.55;;
10092;SDS011;5085;48.092;11.484;2022-12-07T12:01:33;5.57;;;3.20;;
10092;SDS011;5085;48.092;11.484;2022-12-07T12:04:32;5.10;;;3.10;;
10092;SDS011;5085;48.092;11.484;2022-12-07T12:07:16;6.20;;;3.60;;
10092;SDS011;5085;48.092;11.484;2022-12-07T12:09:51;6.07;;;3.58;;
10092;SDS011;5085;48.092;11.484;2022-12-07T12:20:55;7.10;;;3.25;;
10092;SDS011;5085;48.092;11.484;2022-12-07T12:23:44;7.15;;;3.70;;
10092;SDS011;5085;48.092;11.484;2022-12-07T12:26:18;7.15;;;3.63;;
10092;SDS011;5085;48.092;11.484;2022-12-07T12:36:43;7.82;;;4.07;;
10092;SDS011;5085;48.092;11.484;2022-12-07T12:39:15;6.15;;;3.38;;
10092;SDS011;5085;48.092;11.484;2022-12-07T12:46:51;5.50;;;3.63;;
10092;SDS011;5085;48.092;11.484;2022-12-07T12:51:51;6.57;;;3.38;;
10092;SDS011;5085;48.092;11.484;2022-12-07T12:59:32;5.38;;;3.13;;
10092;SDS011;5085;48.092;11.484;2022-12-07T13:02:09;7.20;;;3.72;;
10092;SDS011;5085;48.092;11.484;2022-12-07T13:05:21;5.45;;;3.13;;
10092;SDS011;5085;48.092;11.484;2022-12-07T13:15:31;6.85;;;3.03;;
10092;SDS011;5085;48.092;11.484;2022-12-07T13:18:00;6.57;;;3.60;;
10092;SDS011;5085;48.092;11.484;2022-12-07T13:20:42;8.90;;;3.00;;
10092;SDS011;5085;48.092;11.484;2022-12-07T13:23:31;7.18;;;3.92;;
10092;SDS011;5085;48.092;11.484;2022-12-07T13:28:45;5.72;;;2.83;;
10092;SDS011;5085;48.092;11.484;2022-12-07T13:34:04;5.63;;;2.55;;
10092;SDS011;5085;48.092;11.484;2022-12-07T13:36:50;6.30;;;3.28;;
10092;SDS011;5085;48.092;11.484;2022-12-07T13:39:18;5.43;;;2.85;;
10092;SDS011;5085;48.092;11.484;2022-12-07T13:41:54;5.90;;;3.03;;
10092;SDS011;5085;48.092;11.484;2022-12-07T13:44:26;7.00;;;3.00;;
10092;SDS011;5085;48.092;11.484;2022-12-07T13:51:54;6.25;;;3.00;;
10092;SDS011;5085;48.092;11.484;2022-12-07T13:54:32;7.43;;;3.25;;
10092;SDS011;5085;48.092;11.484;2022-12-07T13:56:58;6.05;;;3.10;;
10092;SDS011;5085;48.092;11.484;2022-12-07T13:59:24;6.10;;;3.20;;
10092;SDS011;5085;48.092;11.484;2022-12-07T14:01:51;9.57;;;3.53;;
10092;SDS011;5085;48.092;11.484;2022-12-07T14:06:48;5.72;;;3.20;;
10092;SDS011;5085;48.092;11.484;2022-12-07T14:09:25;6.03;;;3.13;;
10092;SDS011;5085;48.092;11.484;2022-12-07T14:11:53;7.22;;;3.33;;
10092;SDS011;5085;48.092;11.484;2022-12-07T14:14:22;6.22;;;2.97;;
10092;SDS011;5085;48.092;11.484;2022-12-07T14:16:55;7.40;;;3.20;;
10092;SDS011;5085;48.092;11.484;2022-12-07T14:19:46;8.80;;;3.00;;
10092;SDS011;5085;48.092;11.484;2022-12-07T14:22:22;7.65;;;2.85;;
10092;SDS011;5085;48.092;11.484;2022-12-07T14:24:49;4.63;;;2.22;;
10092;SDS011;5085;48.092;11.484;2022-12-07T14:27:19;8.10;;;2.88;;
10092;SDS011;5085;48.092;11.484;2022-12-07T14:29:47;6.10;;;2.70;;
10092;SDS011;5085;48.092;11.484;2022-12-07T14:32:24;6.43;;;3.03;;
10092;SDS011;5085;48.092;11.484;2022-12-07T14:35:00;5.72;;;2.55;;
10092;SDS011;5085;48.092;11.484;2022-12-07T14:37:34;6.63;;;3.08;;
10092;SDS011;5085;48.092;11.484;2022-12-07T14:40:00;6.22;;;2.95;;
10092;SDS011;5085;48.092;11.484;2022-12-07T14:42:27;9.82;;;3.65;;
10092;SDS011;5085;48.092;11.484;2022-12-07T14:44:55;6.65;;;3.17;;
10092;SDS011;5085;48.092;11.484;2022-12-07T14:47:22;6.85;;;3.38;;
10092;SDS011;5085;48.092;11.484;2022-12-07T14:49:49;8.30;;;3.25;;
10092;SDS011;5085;48.092;11.484;2022-12-07T14:52:23;5.80;;;2.97;;
10092;SDS011;5085;48.092;11.484;2022-12-07T14:54:52;5.47;;;2.60;;
10092;SDS011;5085;48.092;11.484;2022-12-07T14:57:18;4.53;;;2.58;;
10092;SDS011;5085;48.092;11.484;2022-12-07T14:59:44;10.15;;;3.13;;
10092;SDS011;5085;48.092;11.484;2022-12-07T15:02:11;5.25;;;2.72;;
10092;SDS011;5085;48.092;11.484;2022-12-07T15:04:39;12.27;;;3.20;;
10092;SDS011;5085;48.092;11.484;2022-12-07T15:07:06;10.70;;;3.33;;
10092;SDS011;5085;48.092;11.484;2022-12-07T15:09:40;8.30;;;2.92;;
10092;SDS011;5085;48.092;11.484;2022-12-07T15:12:06;7.65;;;3.08;;
10092;SDS011;5085;48.092;11.484;2022-12-07T15:14:32;5.57;;;2.88;;
10092;SDS011;5085;48.092;11.484;2022-12-07T15:16:58;8.57;;;2.53;;
10092;SDS011;5085;48.092;11.484;2022-12-07T15:19:25;6.97;;;3.30;;
10092;SDS011;5085;48.092;11.484;2022-12-07T15:21:52;7.88;;;3.10;;
10092;SDS011;5085;48.092;11.484;2022-12-07T15:24:19;8.32;;;3.92;;
10092;SDS011;5085;48.092;11.484;2022-12-07T15:26:45;7.95;;;3.47;;
10092;SDS011;5085;48.092;11.484;2022-12-07T15:29:12;7.50;;;3.97;;
10092;SDS011;5085;48.092;11.484;2022-12-07T15:31:40;8.18;;;3.25;;
10092;SDS011;5085;48.092;11.484;2022-12-07T15:34:06;7.68;;;3.75;;
10092;SDS011;5085;48.092;11.484;2022-12-07T15:36:32;6.43;;;3.22;;
10092;SDS011;5085;48.092;11.484;2022-12-07T15:38:59;7.15;;;3.53;;
10092;SDS011;5085;48.092;11.484;2022-12-07T15:41:26;6.50;;;3.67;;
10092;SDS011;5085;48.092;11.484;2022-12-07T15:43:52;9.75;;;4.25;;
10092;SDS011;5085;48.092;11.484;2022-12-07T15:46:38;7.63;;;3.75;;
10092;SDS011;5085;48.092;11.484;2022-12-07T15:49:12;7.03;;;3.22;;
10092;SDS011;5085;48.092;11.484;2022-12-07T15:51:40;10.98;;;3.75;;
10092;SDS011;5085;48.092;11.484;2022-12-07T15:54:08;7.40;;;2.85;;
10092;SDS011;5085;48.092;11.484;2022-12-07T15:56:43;7.80;;;3.85;;
10092;SDS011;5085;48.092;11.484;2022-12-07T15:59:09;10.38;;;4.20;;
10092;SDS011;5085;48.092;11.484;2022-12-07T16:01:35;7.78;;;4.07;;
10092;SDS011;5085;48.092;11.484;2022-12-07T16:04:01;10.27;;;4.35;;
10092;SDS011;5085;48.092;11.484;2022-12-07T16:06:27;11.18;;;4.38;;
10092;SDS011;5085;48.092;11.484;2022-12-07T16:08:53;10.10;;;5.28;;
10092;SDS011;5085;48.092;11.484;2022-12-07T16:11:20;9.43;;;3.83;;
10092;SDS011;5085;48.092;11.484;2022-12-07T16:13:46;7.90;;;4.38;;
10092;SDS011;5085;48.092;11.484;2022-12-07T16:16:14;14.88;;;4.30;;
10092;SDS011;5085;48.092;11.484;2022-12-07T16:18:44;8.68;;;4.38;;
10092;SDS011;5085;48.092;11.484;2022-12-07T16:21:12;7.68;;;4.03;;
10092;SDS011;5085;48.092;11.484;2022-12-07T16:23:38;8.55;;;4.15;;
10092;SDS011;5085;48.092;11.484;2022-12-07T16:26:05;6.60;;;3.42;;
10092;SDS011;5085;48.092;11.484;2022-12-07T16:28:34;11.05;;;4.03;;
10092;SDS011;5085;48.092;11.484;2022-12-07T16:31:34;10.32;;;4.57;;
10092;SDS011;5085;48.092;11.484;2022-12-07T16:33:54;10.90;;;4.57;;
10092;SDS011;5085;48.092;11.484;2022-12-07T16:36:21;10.65;;;4.75;;
10092;SDS011;5085;48.092;11.484;2022-12-07T16:38:50;8.85;;;4.22;;
10092;SDS011;5085;48.092;11.484;2022-12-07T16:41:16;8.60;;;4.28;;
10092;SDS011;5085;48.092;11.484;2022-12-07T16:43:42;7.60;;;3.97;;
10092;SDS011;5085;48.092;11.484;2022-12-07T16:46:08;13.15;;;4.90;;
10092;SDS011;5085;48.092;11.484;2022-12-07T16:48:36;9.30;;;4.63;;
10092;SDS011;5085;48.092;11.484;2022-12-07T16:51:06;7.50;;;4.35;;
10092;SDS011;5085;48.092;11.484;2022-12-07T16:56:00;7.75;;;3.53;;
10092;SDS011;5085;48.092;11.484;2022-12-07T16:58:26;8.38;;;3.35;;
10092;SDS011;5085;48.092;11.484;2022-12-07T17:00:53;6.38;;;3.10;;
10092;SDS011;5085;48.092;11.484;2022-12-07T17:03:19;8.57;;;4.28;;
10092;SDS011;5085;48.092;11.484;2022-12-07T17:05:45;10.50;;;4.40;;
10092;SDS011;5085;48.092;11.484;2022-12-07T17:08:12;8.43;;;4.47;;
10092;SDS011;5085;48.092;11.484;2022-12-07T17:10:40;6.28;;;3.83;;
10092;SDS011;5085;48.092;11.484;2022-12-07T17:13:08;12.05;;;5.45;;
10092;SDS011;5085;48.092;11.484;2022-12-07T17:15:54;9.93;;;4.10;;
10092;SDS011;5085;48.092;11.484;2022-12-07T17:18:26;8.95;;;4.32;;
10092;SDS011;5085;48.092;11.484;2022-12-07T17:20:53;9.20;;;4.05;;
10092;SDS011;5085;48.092;11.484;2022-12-07T17:23:20;10.35;;;4.72;;
10092;SDS011;5085;48.092;11.484;2022-12-07T17:25:46;10.85;;;5.70;;
10092;SDS011;5085;48.092;11.484;2022-12-07T17:28:12;10.73;;;5.93;;
10092;SDS011;5085;48.092;11.484;2022-12-07T17:30:38;11.88;;;5.72;;
10092;SDS011;5085;48.092;11.484;2022-12-07T17:33:04;10.07;;;5.43;;
10092;SDS011;5085;48.092;11.484;2022-12-07T17:35:30;7.90;;;4.18;;
10092;SDS011;5085;48.092;11.484;2022-12-07T17:37:56;7.68;;;3.42;;
10092;SDS011;5085;48.092;11.484;2022-12-07T17:40:22;7.75;;;4.10;;
10092;SDS011;5085;48.092;11.484;2022-12-07T17:42:48;8.73;;;3.38;;
10092;SDS011;5085;48.092;11.484;2022-12-07T17:45:16;7.80;;;3.70;;
10092;SDS011;5085;48.092;11.484;2022-12-07T17:47:42;7.97;;;3.97;;
10092;SDS011;5085;48.092;11.484;2022-12-07T17:50:08;9.02;;;3.95;;
10092;SDS011;5085;48.092;11.484;2022-12-07T17:52:38;9.73;;;3.92;;
10092;SDS011;5085;48.092;11.484;2022-12-07T17:55:24;9.75;;;4.22;;